sensor_id;sensor_type;location;lat;lon;timestamp;P1;durP1;ratioP1;P2;durP2;ratioP2
9117;SDS011;4594;50.994;7.126;2022-12-01T00:00:57;5.87;;;5.20;;
9117;SDS011;4594;50.994;7.126;2022-12-01T00:03:23;11.40;;;5.00;;
9117;SDS011;4594;50.994;7.126;2022-12-01T00:06:06;5.60;;;5.00;;
9117;SDS011;4594;50.994;7.126;2022-12-01T00:08:40;6.13;;;5.17;;
9117;SDS011;4594;50.994;7.126;2022-12-01T00:11:26;5.50;;;5.00;;
9117;SDS011;4594;50.994;7.126;2022-12-01T00:13:51;5.77;;;5.20;;
9117;SDS011;4594;50.994;7.126;2022-12-01T00:16:17;6.33;;;5.70;;
9117;SDS011;4594;50.994;7.126;2022-12-01T00:18:43;6.03;;;5.43;;
9117;SDS011;4594;50.994;7.126;2022-12-01T00:21:13;5.83;;;5.00;;
9117;SDS011;4594;50.994;7.126;2022-12-01T00:23:47;5.23;;;4.73;;
9117;SDS011;4594;50.994;7.126;2022-12-01T00:26:16;8.17;;;4.70;;
9117;SDS011;4594;50.994;7.126;2022-12-01T00:28:47;4.73;;;4.37;;
9117;SDS011;4594;50.994;7.126;2022-12-01T00:31:17;5.43;;;4.87;;
9117;SDS011;4594;50.994;7.126;2022-12-01T00:33:43;5.97;;;5.33;;
9117;SDS011;4594;50.994;7.126;2022-12-01T00:36:09;6.00;;;4.80;;
9117;SDS011;4594;50.994;7.126;2022-12-01T00:38:35;6.10;;;5.10;;
9117;SDS011;4594;50.994;7.126;2022-12-01T00:41:01;5.10;;;4.70;;
9117;SDS011;4594;50.994;7.126;2022-12-01T00:43:27;5.00;;;4.60;;
9117;SDS011;4594;50.994;7.126;2022-12-01T00:45:53;5.60;;;5.10;;
9117;SDS011;4594;50.994;7.126;2022-12-01T00:48:20;5.60;;;5.10;;
9117;SDS011;4594;50.994;7.126;2022-12-01T00:50:46;5.77;;;5.20;;
9117;SDS011;4594;50.994;7.126;2022-12-01T00:53:15;5.23;;;4.80;;
9117;SDS011;4594;50.994;7.126;2022-12-01T00:55:41;5.73;;;5.23;;
9117;SDS011;4594;50.994;7.126;2022-12-01T00:58:06;5.80;;;5.00;;
9117;SDS011;4594;50.994;7.126;2022-12-01T01:00:32;5.23;;;4.73;;
9117;SDS011;4594;50.994;7.126;2022-12-01T01:02:58;5.70;;;5.10;;
9117;SDS011;4594;50.994;7.126;2022-12-01T01:05:24;5.83;;;4.73;;
9117;SDS011;4594;50.994;7.126;2022-12-01T01:07:49;7.57;;;5.90;;
9117;SDS011;4594;50.994;7.126;2022-12-01T01:10:15;5.30;;;4.80;;
9117;SDS011;4594;50.994;7.126;2022-12-01T01:12:41;6.17;;;5.60;;
9117;SDS011;4594;50.994;7.126;2022-12-01T01:15:07;4.50;;;4.20;;
9117;SDS011;4594;50.994;7.126;2022-12-01T01:17:33;5.47;;;4.93;;
9117;SDS011;4594;50.994;7.126;2022-12-01T01:19:58;5.60;;;5.10;;
9117;SDS011;4594;50.994;7.126;2022-12-01T01:22:24;5.70;;;5.07;;
9117;SDS011;4594;50.994;7.126;2022-12-01T01:24:50;5.70;;;5.20;;
9117;SDS011;4594;50.994;7.126;2022-12-01T01:27:15;6.10;;;5.00;;
9117;SDS011;4594;50.994;7.126;2022-12-01T01:29:41;5.53;;;5.03;;
9117;SDS011;4594;50.994;7.126;2022-12-01T01:32:07;11.37;;;5.67;;
9117;SDS011;4594;50.994;7.126;2022-12-01T01:34:33;5.40;;;5.00;;
9117;SDS011;4594;50.994;7.126;2022-12-01T01:36:58;5.33;;;4.83;;
9117;SDS011;4594;50.994;7.126;2022-12-01T01:39:24;5.53;;;5.03;;
9117;SDS011;4594;50.994;7.126;2022-12-01T01:41:50;6.23;;;5.20;;
9117;SDS011;4594;50.994;7.126;2022-12-01T01:47:43;5.40;;;4.87;;
9117;SDS011;4594;50.994;7.126;2022-12-01T01:50:10;6.20;;;5.60;;
9117;SDS011;4594;50.994;7.126;2022-12-01T01:52:44;7.30;;;5.83;;
9117;SDS011;4594;50.994;7.126;2022-12-01T01:55:16;5.43;;;4.93;;
9117;SDS011;4594;50.994;7.126;2022-12-01T01:57:43;6.13;;;5.53;;
9117;SDS011;4594;50.994;7.126;2022-12-01T02:00:11;6.37;;;5.80;;
9117;SDS011;4594;50.994;7.126;2022-12-01T02:02:41;7.67;;;6.17;;
9117;SDS011;4594;50.994;7.126;2022-12-01T02:05:21;6.60;;;5.80;;
9117;SDS011;4594;50.994;7.126;2022-12-01T02:07:52;6.93;;;5.80;;
9117;SDS011;4594;50.994;7.126;2022-12-01T02:13:52;6.43;;;5.77;;
9117;SDS011;4594;50.994;7.126;2022-12-01T02:16:35;6.30;;;5.70;;
9117;SDS011;4594;50.994;7.126;2022-12-01T02:28:47;7.00;;;5.83;;
9117;SDS011;4594;50.994;7.126;2022-12-01T02:31:38;7.03;;;5.93;;
9117;SDS011;4594;50.994;7.126;2022-12-01T02:36:53;8.60;;;6.77;;
9117;SDS011;4594;50.994;7.126;2022-12-01T02:39:31;9.07;;;7.20;;
9117;SDS011;4594;50.994;7.126;2022-12-01T02:42:09;8.43;;;6.67;;
9117;SDS011;4594;50.994;7.126;2022-12-01T02:45:04;7.67;;;6.47;;
9117;SDS011;4594;50.994;7.126;2022-12-01T02:47:37;9.30;;;6.67;;
9117;SDS011;4594;50.994;7.126;2022-12-01T02:50:06;13.80;;;8.07;;
9117;SDS011;4594;50.994;7.126;2022-12-01T02:52:34;15.57;;;8.77;;
9117;SDS011;4594;50.994;7.126;2022-12-01T02:55:04;11.73;;;8.07;;
9117;SDS011;4594;50.994;7.126;2022-12-01T02:57:30;13.40;;;9.13;;
9117;SDS011;4594;50.994;7.126;2022-12-01T02:59:56;12.73;;;8.23;;
9117;SDS011;4594;50.994;7.126;2022-12-01T03:05:25;13.87;;;8.63;;
9117;SDS011;4594;50.994;7.126;2022-12-01T03:10:53;11.97;;;8.60;;
9117;SDS011;4594;50.994;7.126;2022-12-01T03:13:39;11.90;;;8.67;;
9117;SDS011;4594;50.994;7.126;2022-12-01T03:16:26;12.00;;;8.63;;
9117;SDS011;4594;50.994;7.126;2022-12-01T03:19:26;14.80;;;9.47;;
9117;SDS011;4594;50.994;7.126;2022-12-01T03:22:04;15.07;;;8.77;;
9117;SDS011;4594;50.994;7.126;2022-12-01T03:25:12;14.00;;;9.27;;
9117;SDS011;4594;50.994;7.126;2022-12-01T03:27:40;16.20;;;10.10;;
9117;SDS011;4594;50.994;7.126;2022-12-01T03:30:10;13.00;;;8.73;;
9117;SDS011;4594;50.994;7.126;2022-12-01T03:32:43;15.73;;;10.00;;
9117;SDS011;4594;50.994;7.126;2022-12-01T03:38:20;11.10;;;8.10;;
9117;SDS011;4594;50.994;7.126;2022-12-01T03:40:53;14.77;;;10.00;;
9117;SDS011;4594;50.994;7.126;2022-12-01T03:43:28;12.40;;;8.17;;
9117;SDS011;4594;50.994;7.126;2022-12-01T03:46:10;16.57;;;9.53;;
9117;SDS011;4594;50.994;7.126;2022-12-01T03:48:37;13.70;;;8.77;;
9117;SDS011;4594;50.994;7.126;2022-12-01T03:57:04;12.17;;;8.83;;
9117;SDS011;4594;50.994;7.126;2022-12-01T03:59:37;15.13;;;9.43;;
9117;SDS011;4594;50.994;7.126;2022-12-01T04:02:05;11.97;;;8.87;;
9117;SDS011;4594;50.994;7.126;2022-12-01T04:04:32;13.17;;;8.43;;
9117;SDS011;4594;50.994;7.126;2022-12-01T04:06:58;13.27;;;8.53;;
9117;SDS011;4594;50.994;7.126;2022-12-01T04:09:23;14.27;;;8.77;;
9117;SDS011;4594;50.994;7.126;2022-12-01T04:11:49;12.73;;;8.50;;
9117;SDS011;4594;50.994;7.126;2022-12-01T04:14:33;18.90;;;9.23;;
9117;SDS011;4594;50.994;7.126;2022-12-01T04:16:59;13.23;;;9.50;;
9117;SDS011;4594;50.994;7.126;2022-12-01T04:19:24;15.20;;;9.80;;
9117;SDS011;4594;50.994;7.126;2022-12-01T04:21:50;14.53;;;9.57;;
9117;SDS011;4594;50.994;7.126;2022-12-01T04:24:15;16.40;;;10.03;;
9117;SDS011;4594;50.994;7.126;2022-12-01T04:26:41;14.77;;;8.80;;
9117;SDS011;4594;50.994;7.126;2022-12-01T04:29:08;12.97;;;9.00;;
9117;SDS011;4594;50.994;7.126;2022-12-01T04:31:35;15.77;;;9.83;;
9117;SDS011;4594;50.994;7.126;2022-12-01T04:34:01;18.30;;;10.20;;
9117;SDS011;4594;50.994;7.126;2022-12-01T04:36:31;14.33;;;9.90;;
9117;SDS011;4594;50.994;7.126;2022-12-01T04:38:58;16.70;;;11.00;;
9117;SDS011;4594;50.994;7.126;2022-12-01T04:41:25;13.53;;;9.97;;
9117;SDS011;4594;50.994;7.126;2022-12-01T04:43:52;18.40;;;10.93;;
9117;SDS011;4594;50.994;7.126;2022-12-01T04:46:18;16.13;;;10.53;;
9117;SDS011;4594;50.994;7.126;2022-12-01T04:48:45;19.03;;;11.53;;
9117;SDS011;4594;50.994;7.126;2022-12-01T04:51:10;19.00;;;11.43;;
9117;SDS011;4594;50.994;7.126;2022-12-01T04:53:36;16.63;;;10.33;;
9117;SDS011;4594;50.994;7.126;2022-12-01T04:56:03;16.83;;;10.90;;
9117;SDS011;4594;50.994;7.126;2022-12-01T04:58:30;17.43;;;10.87;;
9117;SDS011;4594;50.994;7.126;2022-12-01T05:01:02;22.27;;;11.63;;
9117;SDS011;4594;50.994;7.126;2022-12-01T05:03:39;19.80;;;11.90;;
9117;SDS011;4594;50.994;7.126;2022-12-01T05:06:11;19.53;;;12.03;;
9117;SDS011;4594;50.994;7.126;2022-12-01T05:08:42;17.97;;;10.73;;
9117;SDS011;4594;50.994;7.126;2022-12-01T05:11:09;20.37;;;11.53;;
9117;SDS011;4594;50.994;7.126;2022-12-01T05:13:40;20.57;;;11.80;;
9117;SDS011;4594;50.994;7.126;2022-12-01T05:16:21;18.50;;;10.93;;
9117;SDS011;4594;50.994;7.126;2022-12-01T05:18:58;19.13;;;11.23;;
9117;SDS011;4594;50.994;7.126;2022-12-01T05:21:46;20.07;;;11.13;;
9117;SDS011;4594;50.994;7.126;2022-12-01T05:24:13;18.13;;;10.53;;
9117;SDS011;4594;50.994;7.126;2022-12-01T05:26:40;24.07;;;12.23;;
9117;SDS011;4594;50.994;7.126;2022-12-01T05:29:08;16.37;;;10.83;;
9117;SDS011;4594;50.994;7.126;2022-12-01T05:31:34;17.50;;;11.57;;
9117;SDS011;4594;50.994;7.126;2022-12-01T05:34:00;20.93;;;11.97;;
9117;SDS011;4594;50.994;7.126;2022-12-01T05:36:26;22.90;;;12.27;;
9117;SDS011;4594;50.994;7.126;2022-12-01T05:38:52;23.40;;;13.43;;
9117;SDS011;4594;50.994;7.126;2022-12-01T05:41:18;21.70;;;11.97;;
9117;SDS011;4594;50.994;7.126;2022-12-01T05:43:44;21.10;;;12.70;;
9117;SDS011;4594;50.994;7.126;2022-12-01T05:46:10;21.03;;;12.10;;
9117;SDS011;4594;50.994;7.126;2022-12-01T05:48:36;17.93;;;11.17;;
9117;SDS011;4594;50.994;7.126;2022-12-01T05:51:12;25.60;;;14.73;;
9117;SDS011;4594;50.994;7.126;2022-12-01T05:53:40;21.33;;;13.97;;
9117;SDS011;4594;50.994;7.126;2022-12-01T05:56:06;20.00;;;11.60;;
9117;SDS011;4594;50.994;7.126;2022-12-01T05:58:33;20.07;;;12.27;;
9117;SDS011;4594;50.994;7.126;2022-12-01T06:01:00;19.53;;;11.50;;
9117;SDS011;4594;50.994;7.126;2022-12-01T06:03:26;22.27;;;11.17;;
9117;SDS011;4594;50.994;7.126;2022-12-01T06:05:51;17.17;;;10.30;;
9117;SDS011;4594;50.994;7.126;2022-12-01T06:08:17;18.40;;;10.77;;
9117;SDS011;4594;50.994;7.126;2022-12-01T06:10:43;17.53;;;10.63;;
9117;SDS011;4594;50.994;7.126;2022-12-01T06:13:10;16.70;;;10.40;;
9117;SDS011;4594;50.994;7.126;2022-12-01T06:15:35;20.10;;;11.50;;
9117;SDS011;4594;50.994;7.126;2022-12-01T06:18:01;18.17;;;11.23;;
9117;SDS011;4594;50.994;7.126;2022-12-01T06:20:27;21.47;;;11.47;;
9117;SDS011;4594;50.994;7.126;2022-12-01T06:22:53;19.23;;;12.27;;
9117;SDS011;4594;50.994;7.126;2022-12-01T06:25:18;21.73;;;12.27;;
9117;SDS011;4594;50.994;7.126;2022-12-01T06:27:44;21.57;;;11.60;;
9117;SDS011;4594;50.994;7.126;2022-12-01T06:30:10;18.37;;;11.07;;
9117;SDS011;4594;50.994;7.126;2022-12-01T06:32:36;20.07;;;11.90;;
9117;SDS011;4594;50.994;7.126;2022-12-01T06:35:02;19.33;;;11.03;;
9117;SDS011;4594;50.994;7.126;2022-12-01T06:37:28;20.30;;;11.50;;
9117;SDS011;4594;50.994;7.126;2022-12-01T06:39:53;26.03;;;14.13;;
9117;SDS011;4594;50.994;7.126;2022-12-01T06:42:19;20.33;;;12.17;;
9117;SDS011;4594;50.994;7.126;2022-12-01T06:44:45;19.40;;;11.73;;
9117;SDS011;4594;50.994;7.126;2022-12-01T06:47:10;23.23;;;12.57;;
9117;SDS011;4594;50.994;7.126;2022-12-01T06:49:36;20.57;;;11.63;;
9117;SDS011;4594;50.994;7.126;2022-12-01T06:52:02;18.97;;;10.80;;
9117;SDS011;4594;50.994;7.126;2022-12-01T06:54:28;20.70;;;12.20;;
9117;SDS011;4594;50.994;7.126;2022-12-01T06:56:54;24.57;;;12.97;;
9117;SDS011;4594;50.994;7.126;2022-12-01T06:59:20;21.97;;;12.23;;
9117;SDS011;4594;50.994;7.126;2022-12-01T07:01:46;19.67;;;12.33;;
9117;SDS011;4594;50.994;7.126;2022-12-01T07:04:12;22.03;;;12.10;;
9117;SDS011;4594;50.994;7.126;2022-12-01T07:06:37;20.00;;;12.27;;
9117;SDS011;4594;50.994;7.126;2022-12-01T07:09:03;20.47;;;11.90;;
9117;SDS011;4594;50.994;7.126;2022-12-01T07:11:29;29.27;;;13.43;;
9117;SDS011;4594;50.994;7.126;2022-12-01T07:13:56;23.27;;;13.73;;
9117;SDS011;4594;50.994;7.126;2022-12-01T07:16:22;28.07;;;14.53;;
9117;SDS011;4594;50.994;7.126;2022-12-01T07:18:48;23.40;;;13.57;;
9117;SDS011;4594;50.994;7.126;2022-12-01T07:21:14;25.80;;;12.63;;
9117;SDS011;4594;50.994;7.126;2022-12-01T07:23:41;26.20;;;12.67;;
9117;SDS011;4594;50.994;7.126;2022-12-01T07:26:14;26.07;;;13.57;;
9117;SDS011;4594;50.994;7.126;2022-12-01T07:28:42;25.53;;;13.20;;
9117;SDS011;4594;50.994;7.126;2022-12-01T07:31:10;27.77;;;13.33;;
9117;SDS011;4594;50.994;7.126;2022-12-01T07:33:40;25.70;;;12.40;;
9117;SDS011;4594;50.994;7.126;2022-12-01T07:36:07;22.60;;;12.10;;
9117;SDS011;4594;50.994;7.126;2022-12-01T07:38:34;27.97;;;13.83;;
9117;SDS011;4594;50.994;7.126;2022-12-01T07:41:04;23.90;;;12.27;;
9117;SDS011;4594;50.994;7.126;2022-12-01T07:43:37;22.77;;;11.87;;
9117;SDS011;4594;50.994;7.126;2022-12-01T07:46:04;22.43;;;11.93;;
9117;SDS011;4594;50.994;7.126;2022-12-01T07:48:33;23.87;;;14.13;;
9117;SDS011;4594;50.994;7.126;2022-12-01T07:51:01;23.50;;;13.13;;
9117;SDS011;4594;50.994;7.126;2022-12-01T07:53:28;20.13;;;12.57;;
9117;SDS011;4594;50.994;7.126;2022-12-01T07:55:54;18.43;;;12.23;;
9117;SDS011;4594;50.994;7.126;2022-12-01T07:58:20;17.50;;;11.70;;
9117;SDS011;4594;50.994;7.126;2022-12-01T08:00:46;18.67;;;10.87;;
9117;SDS011;4594;50.994;7.126;2022-12-01T08:03:12;16.03;;;10.43;;
9117;SDS011;4594;50.994;7.126;2022-12-01T08:05:38;16.67;;;11.53;;
9117;SDS011;4594;50.994;7.126;2022-12-01T08:08:04;17.13;;;11.20;;
9117;SDS011;4594;50.994;7.126;2022-12-01T08:10:30;18.43;;;11.70;;
9117;SDS011;4594;50.994;7.126;2022-12-01T08:12:57;18.37;;;11.20;;
9117;SDS011;4594;50.994;7.126;2022-12-01T08:15:22;19.67;;;12.37;;
9117;SDS011;4594;50.994;7.126;2022-12-01T08:17:48;20.00;;;11.47;;
9117;SDS011;4594;50.994;7.126;2022-12-01T08:20:14;16.70;;;11.67;;
9117;SDS011;4594;50.994;7.126;2022-12-01T08:22:40;17.70;;;10.70;;
9117;SDS011;4594;50.994;7.126;2022-12-01T08:25:06;18.10;;;11.13;;
9117;SDS011;4594;50.994;7.126;2022-12-01T08:27:32;17.53;;;10.80;;
9117;SDS011;4594;50.994;7.126;2022-12-01T08:29:59;18.50;;;11.33;;
9117;SDS011;4594;50.994;7.126;2022-12-01T08:32:25;17.53;;;11.10;;
9117;SDS011;4594;50.994;7.126;2022-12-01T08:34:51;21.53;;;11.43;;
9117;SDS011;4594;50.994;7.126;2022-12-01T08:37:16;18.00;;;11.07;;
9117;SDS011;4594;50.994;7.126;2022-12-01T08:39:42;16.93;;;10.57;;
9117;SDS011;4594;50.994;7.126;2022-12-01T08:42:07;16.93;;;10.77;;
9117;SDS011;4594;50.994;7.126;2022-12-01T08:44:33;17.27;;;11.00;;
9117;SDS011;4594;50.994;7.126;2022-12-01T08:46:59;17.33;;;10.60;;
9117;SDS011;4594;50.994;7.126;2022-12-01T08:49:24;18.60;;;11.43;;
9117;SDS011;4594;50.994;7.126;2022-12-01T08:51:50;20.13;;;11.97;;
9117;SDS011;4594;50.994;7.126;2022-12-01T08:54:16;19.17;;;11.33;;
9117;SDS011;4594;50.994;7.126;2022-12-01T08:56:42;15.53;;;9.87;;
9117;SDS011;4594;50.994;7.126;2022-12-01T08:59:09;15.13;;;9.70;;
9117;SDS011;4594;50.994;7.126;2022-12-01T09:01:35;13.43;;;9.30;;
9117;SDS011;4594;50.994;7.126;2022-12-01T09:04:17;15.63;;;9.57;;
9117;SDS011;4594;50.994;7.126;2022-12-01T09:06:49;15.70;;;9.40;;
9117;SDS011;4594;50.994;7.126;2022-12-01T09:09:17;14.63;;;8.60;;
9117;SDS011;4594;50.994;7.126;2022-12-01T09:11:48;17.27;;;10.80;;
9117;SDS011;4594;50.994;7.126;2022-12-01T09:14:16;16.73;;;10.23;;
9117;SDS011;4594;50.994;7.126;2022-12-01T09:16:44;18.10;;;11.53;;
9117;SDS011;4594;50.994;7.126;2022-12-01T09:19:13;13.73;;;9.57;;
9117;SDS011;4594;50.994;7.126;2022-12-01T09:21:42;14.70;;;9.43;;
9117;SDS011;4594;50.994;7.126;2022-12-01T09:24:09;11.87;;;8.47;;
9117;SDS011;4594;50.994;7.126;2022-12-01T09:26:37;13.87;;;8.80;;
9117;SDS011;4594;50.994;7.126;2022-12-01T09:29:04;15.77;;;8.57;;
9117;SDS011;4594;50.994;7.126;2022-12-01T09:31:35;14.33;;;9.57;;
9117;SDS011;4594;50.994;7.126;2022-12-01T09:34:02;14.73;;;9.13;;
9117;SDS011;4594;50.994;7.126;2022-12-01T09:36:32;14.57;;;9.00;;
9117;SDS011;4594;50.994;7.126;2022-12-01T09:39:00;14.33;;;8.80;;
9117;SDS011;4594;50.994;7.126;2022-12-01T09:41:36;17.17;;;10.17;;
9117;SDS011;4594;50.994;7.126;2022-12-01T09:50:00;13.67;;;8.53;;
9117;SDS011;4594;50.994;7.126;2022-12-01T09:52:42;10.53;;;8.10;;
9117;SDS011;4594;50.994;7.126;2022-12-01T09:55:15;13.27;;;8.97;;
9117;SDS011;4594;50.994;7.126;2022-12-01T09:57:45;10.80;;;8.20;;
9117;SDS011;4594;50.994;7.126;2022-12-01T10:00:21;10.73;;;8.20;;
9117;SDS011;4594;50.994;7.126;2022-12-01T10:05:43;8.17;;;6.87;;
9117;SDS011;4594;50.994;7.126;2022-12-01T10:08:15;8.93;;;6.37;;
9117;SDS011;4594;50.994;7.126;2022-12-01T10:10:48;12.30;;;6.80;;
9117;SDS011;4594;50.994;7.126;2022-12-01T10:13:24;7.20;;;6.40;;
9117;SDS011;4594;50.994;7.126;2022-12-01T10:18:22;9.60;;;7.20;;
9117;SDS011;4594;50.994;7.126;2022-12-01T10:35:18;9.97;;;8.10;;
9117;SDS011;4594;50.994;7.126;2022-12-01T10:37:53;11.17;;;6.80;;
9117;SDS011;4594;50.994;7.126;2022-12-01T10:40:23;8.00;;;6.70;;
9117;SDS011;4594;50.994;7.126;2022-12-01T10:42:51;10.53;;;7.00;;
9117;SDS011;4594;50.994;7.126;2022-12-01T10:45:28;9.70;;;7.53;;
9117;SDS011;4594;50.994;7.126;2022-12-01T10:50:47;7.50;;;6.70;;
9117;SDS011;4594;50.994;7.126;2022-12-01T10:55:55;13.17;;;7.97;;
9117;SDS011;4594;50.994;7.126;2022-12-01T10:58:42;11.20;;;7.13;;
9117;SDS011;4594;50.994;7.126;2022-12-01T11:01:24;9.37;;;7.03;;
9117;SDS011;4594;50.994;7.126;2022-12-01T11:03:59;14.30;;;9.33;;
9117;SDS011;4594;50.994;7.126;2022-12-01T11:06:46;13.53;;;9.10;;
9117;SDS011;4594;50.994;7.126;2022-12-01T11:09:18;14.17;;;9.60;;
9117;SDS011;4594;50.994;7.126;2022-12-01T11:12:01;15.93;;;9.97;;
9117;SDS011;4594;50.994;7.126;2022-12-01T11:14:33;16.07;;;10.33;;
9117;SDS011;4594;50.994;7.126;2022-12-01T11:19:51;19.73;;;11.53;;
9117;SDS011;4594;50.994;7.126;2022-12-01T11:22:22;18.67;;;10.97;;
9117;SDS011;4594;50.994;7.126;2022-12-01T11:25:01;18.53;;;11.63;;
9117;SDS011;4594;50.994;7.126;2022-12-01T11:27:45;14.67;;;10.33;;
9117;SDS011;4594;50.994;7.126;2022-12-01T11:30:24;17.00;;;10.83;;
9117;SDS011;4594;50.994;7.126;2022-12-01T11:32:59;18.90;;;11.83;;
9117;SDS011;4594;50.994;7.126;2022-12-01T11:35:29;17.83;;;11.60;;
9117;SDS011;4594;50.994;7.126;2022-12-01T11:37:59;20.30;;;11.97;;
9117;SDS011;4594;50.994;7.126;2022-12-01T11:40:32;23.37;;;13.30;;
9117;SDS011;4594;50.994;7.126;2022-12-01T11:43:34;19.10;;;11.77;;
9117;SDS011;4594;50.994;7.126;2022-12-01T11:46:03;19.07;;;12.33;;
9117;SDS011;4594;50.994;7.126;2022-12-01T11:48:33;21.00;;;12.87;;
9117;SDS011;4594;50.994;7.126;2022-12-01T11:53:44;24.63;;;13.40;;
9117;SDS011;4594;50.994;7.126;2022-12-01T11:56:15;19.87;;;13.03;;
9117;SDS011;4594;50.994;7.126;2022-12-01T11:59:02;19.50;;;12.43;;
9117;SDS011;4594;50.994;7.126;2022-12-01T12:10:51;24.40;;;14.80;;
9117;SDS011;4594;50.994;7.126;2022-12-01T12:40:03;30.43;;;15.30;;
9117;SDS011;4594;50.994;7.126;2022-12-01T12:46:20;27.77;;;15.13;;
9117;SDS011;4594;50.994;7.126;2022-12-01T12:54:30;31.77;;;16.93;;
9117;SDS011;4594;50.994;7.126;2022-12-01T12:57:09;26.33;;;16.07;;
9117;SDS011;4594;50.994;7.126;2022-12-01T12:59:52;25.60;;;14.90;;
9117;SDS011;4594;50.994;7.126;2022-12-01T13:03:03;29.93;;;16.33;;
9117;SDS011;4594;50.994;7.126;2022-12-01T13:05:53;28.33;;;15.57;;
9117;SDS011;4594;50.994;7.126;2022-12-01T13:08:33;28.27;;;15.20;;
9117;SDS011;4594;50.994;7.126;2022-12-01T13:16:50;27.00;;;15.30;;
9117;SDS011;4594;50.994;7.126;2022-12-01T13:19:31;26.23;;;14.83;;
9117;SDS011;4594;50.994;7.126;2022-12-01T13:22:03;29.03;;;16.27;;
9117;SDS011;4594;50.994;7.126;2022-12-01T13:24:31;29.90;;;16.87;;
9117;SDS011;4594;50.994;7.126;2022-12-01T13:27:04;30.10;;;16.60;;
9117;SDS011;4594;50.994;7.126;2022-12-01T13:29:43;30.87;;;16.07;;
9117;SDS011;4594;50.994;7.126;2022-12-01T13:32:26;27.53;;;16.40;;
9117;SDS011;4594;50.994;7.126;2022-12-01T13:34:58;29.20;;;16.23;;
9117;SDS011;4594;50.994;7.126;2022-12-01T13:37:35;27.60;;;14.57;;
9117;SDS011;4594;50.994;7.126;2022-12-01T13:40:06;29.80;;;16.90;;
9117;SDS011;4594;50.994;7.126;2022-12-01T13:42:53;33.73;;;17.07;;
9117;SDS011;4594;50.994;7.126;2022-12-01T13:45:33;26.50;;;16.20;;
9117;SDS011;4594;50.994;7.126;2022-12-01T13:48:03;33.47;;;17.50;;
9117;SDS011;4594;50.994;7.126;2022-12-01T13:58:49;33.37;;;17.13;;
9117;SDS011;4594;50.994;7.126;2022-12-01T14:11:57;36.87;;;18.70;;
9117;SDS011;4594;50.994;7.126;2022-12-01T14:14:56;30.07;;;18.20;;
9117;SDS011;4594;50.994;7.126;2022-12-01T14:17:45;34.60;;;17.90;;
9117;SDS011;4594;50.994;7.126;2022-12-01T14:20:21;28.10;;;16.80;;
9117;SDS011;4594;50.994;7.126;2022-12-01T14:23:00;29.73;;;16.60;;
9117;SDS011;4594;50.994;7.126;2022-12-01T14:25:28;30.43;;;17.23;;
9117;SDS011;4594;50.994;7.126;2022-12-01T14:28:02;27.00;;;16.30;;
9117;SDS011;4594;50.994;7.126;2022-12-01T14:36:20;29.17;;;15.63;;
9117;SDS011;4594;50.994;7.126;2022-12-01T14:38:47;26.43;;;14.70;;
9117;SDS011;4594;50.994;7.126;2022-12-01T14:41:29;28.77;;;14.50;;
9117;SDS011;4594;50.994;7.126;2022-12-01T14:46:50;26.40;;;15.33;;
9117;SDS011;4594;50.994;7.126;2022-12-01T14:49:48;23.10;;;14.93;;
9117;SDS011;4594;50.994;7.126;2022-12-01T14:52:38;26.97;;;15.53;;
9117;SDS011;4594;50.994;7.126;2022-12-01T14:55:19;31.47;;;17.47;;
9117;SDS011;4594;50.994;7.126;2022-12-01T14:57:51;33.37;;;18.03;;
9117;SDS011;4594;50.994;7.126;2022-12-01T15:00:28;30.10;;;17.10;;
9117;SDS011;4594;50.994;7.126;2022-12-01T15:02:59;28.60;;;16.67;;
9117;SDS011;4594;50.994;7.126;2022-12-01T15:05:36;29.70;;;17.00;;
9117;SDS011;4594;50.994;7.126;2022-12-01T15:08:19;29.20;;;16.53;;
9117;SDS011;4594;50.994;7.126;2022-12-01T15:10:53;31.00;;;17.93;;
9117;SDS011;4594;50.994;7.126;2022-12-01T15:13:26;31.30;;;17.53;;
9117;SDS011;4594;50.994;7.126;2022-12-01T15:15:58;29.03;;;16.77;;
9117;SDS011;4594;50.994;7.126;2022-12-01T15:18:37;29.13;;;16.93;;
9117;SDS011;4594;50.994;7.126;2022-12-01T15:21:10;27.27;;;15.73;;
9117;SDS011;4594;50.994;7.126;2022-12-01T15:23:51;24.97;;;14.53;;
9117;SDS011;4594;50.994;7.126;2022-12-01T15:26:47;24.10;;;14.50;;
9117;SDS011;4594;50.994;7.126;2022-12-01T15:29:17;23.63;;;14.87;;
9117;SDS011;4594;50.994;7.126;2022-12-01T15:31:57;24.07;;;15.33;;
9117;SDS011;4594;50.994;7.126;2022-12-01T15:34:31;23.03;;;13.60;;
9117;SDS011;4594;50.994;7.126;2022-12-01T15:37:03;24.10;;;15.27;;
9117;SDS011;4594;50.994;7.126;2022-12-01T15:39:42;26.90;;;14.90;;
9117;SDS011;4594;50.994;7.126;2022-12-01T15:42:26;25.70;;;15.60;;
9117;SDS011;4594;50.994;7.126;2022-12-01T15:44:58;27.63;;;16.63;;
9117;SDS011;4594;50.994;7.126;2022-12-01T15:53:01;24.07;;;15.17;;
9117;SDS011;4594;50.994;7.126;2022-12-01T15:55:44;24.00;;;14.63;;
9117;SDS011;4594;50.994;7.126;2022-12-01T15:58:18;25.70;;;15.40;;
9117;SDS011;4594;50.994;7.126;2022-12-01T16:00:58;24.80;;;14.50;;
9117;SDS011;4594;50.994;7.126;2022-12-01T16:03:30;26.90;;;16.53;;
9117;SDS011;4594;50.994;7.126;2022-12-01T16:06:15;28.00;;;17.17;;
9117;SDS011;4594;50.994;7.126;2022-12-01T16:08:50;31.57;;;17.50;;
9117;SDS011;4594;50.994;7.126;2022-12-01T16:11:30;29.80;;;17.47;;
9117;SDS011;4594;50.994;7.126;2022-12-01T16:14:00;27.30;;;16.90;;
9117;SDS011;4594;50.994;7.126;2022-12-01T16:16:45;27.90;;;15.80;;
9117;SDS011;4594;50.994;7.126;2022-12-01T16:24:21;32.13;;;18.80;;
9117;SDS011;4594;50.994;7.126;2022-12-01T16:27:06;33.30;;;17.97;;
9117;SDS011;4594;50.994;7.126;2022-12-01T16:29:52;34.70;;;19.30;;
9117;SDS011;4594;50.994;7.126;2022-12-01T16:32:39;38.10;;;20.47;;
9117;SDS011;4594;50.994;7.126;2022-12-01T16:35:20;31.90;;;18.17;;
9117;SDS011;4594;50.994;7.126;2022-12-01T16:37:49;80.67;;;41.47;;
9117;SDS011;4594;50.994;7.126;2022-12-01T16:40:14;64.80;;;34.53;;
9117;SDS011;4594;50.994;7.126;2022-12-01T16:42:43;47.97;;;25.73;;
9117;SDS011;4594;50.994;7.126;2022-12-01T16:45:10;52.77;;;28.13;;
9117;SDS011;4594;50.994;7.126;2022-12-01T16:47:38;41.83;;;23.07;;
9117;SDS011;4594;50.994;7.126;2022-12-01T16:50:06;93.03;;;48.37;;
9117;SDS011;4594;50.994;7.126;2022-12-01T16:52:41;65.30;;;32.83;;
9117;SDS011;4594;50.994;7.126;2022-12-01T16:55:31;48.87;;;25.17;;
9117;SDS011;4594;50.994;7.126;2022-12-01T16:57:57;43.03;;;21.77;;
9117;SDS011;4594;50.994;7.126;2022-12-01T17:00:23;39.10;;;20.70;;
9117;SDS011;4594;50.994;7.126;2022-12-01T17:02:49;33.43;;;19.17;;
9117;SDS011;4594;50.994;7.126;2022-12-01T17:05:16;36.57;;;21.50;;
9117;SDS011;4594;50.994;7.126;2022-12-01T17:07:42;36.53;;;22.27;;
9117;SDS011;4594;50.994;7.126;2022-12-01T17:10:08;36.97;;;21.20;;
9117;SDS011;4594;50.994;7.126;2022-12-01T17:12:35;36.70;;;21.03;;
9117;SDS011;4594;50.994;7.126;2022-12-01T17:15:00;34.30;;;19.10;;
9117;SDS011;4594;50.994;7.126;2022-12-01T17:17:27;32.07;;;18.70;;
9117;SDS011;4594;50.994;7.126;2022-12-01T17:19:53;31.43;;;18.90;;
9117;SDS011;4594;50.994;7.126;2022-12-01T17:22:19;36.17;;;20.67;;
9117;SDS011;4594;50.994;7.126;2022-12-01T17:24:46;35.73;;;18.97;;
9117;SDS011;4594;50.994;7.126;2022-12-01T17:27:11;30.43;;;18.33;;
9117;SDS011;4594;50.994;7.126;2022-12-01T17:29:37;32.07;;;17.60;;
9117;SDS011;4594;50.994;7.126;2022-12-01T17:32:04;32.13;;;18.00;;
9117;SDS011;4594;50.994;7.126;2022-12-01T17:34:32;36.73;;;18.67;;
9117;SDS011;4594;50.994;7.126;2022-12-01T17:36:57;32.30;;;17.97;;
9117;SDS011;4594;50.994;7.126;2022-12-01T17:39:23;31.73;;;19.13;;
9117;SDS011;4594;50.994;7.126;2022-12-01T17:41:49;33.73;;;17.80;;
9117;SDS011;4594;50.994;7.126;2022-12-01T17:44:14;32.30;;;17.30;;
9117;SDS011;4594;50.994;7.126;2022-12-01T17:46:40;33.23;;;17.77;;
9117;SDS011;4594;50.994;7.126;2022-12-01T17:49:06;35.93;;;18.97;;
9117;SDS011;4594;50.994;7.126;2022-12-01T17:51:35;32.40;;;18.00;;
9117;SDS011;4594;50.994;7.126;2022-12-01T17:54:02;36.20;;;20.53;;
9117;SDS011;4594;50.994;7.126;2022-12-01T17:56:28;36.07;;;18.60;;
9117;SDS011;4594;50.994;7.126;2022-12-01T17:58:54;33.80;;;18.13;;